sensor_id;sensor_type;location;lat;lon;timestamp;P1;durP1;ratioP1;P2;durP2;ratioP2
34405;SDS011;20658;45.630;8.886;2023-07-08T00:01:55;15.55;;;7.13;;
34405;SDS011;20658;45.630;8.886;2023-07-08T00:04:31;17.48;;;8.02;;
34405;SDS011;20658;45.630;8.886;2023-07-08T00:07:08;17.02;;;6.90;;
34405;SDS011;20658;45.630;8.886;2023-07-08T00:09:46;16.15;;;7.55;;
34405;SDS011;20658;45.630;8.886;2023-07-08T00:12:14;13.35;;;6.57;;
34405;SDS011;20658;45.630;8.886;2023-07-08T00:14:48;16.63;;;7.63;;
34405;SDS011;20658;45.630;8.886;2023-07-08T00:17:21;13.80;;;6.93;;
34405;SDS011;20658;45.630;8.886;2023-07-08T00:19:54;17.13;;;6.95;;
34405;SDS011;20658;45.630;8.886;2023-07-08T00:22:28;13.13;;;6.93;;
34405;SDS011;20658;45.630;8.886;2023-07-08T00:24:57;13.18;;;6.70;;
34405;SDS011;20658;45.630;8.886;2023-07-08T00:27:31;13.95;;;6.88;;
34405;SDS011;20658;45.630;8.886;2023-07-08T00:30:15;16.35;;;7.18;;
34405;SDS011;20658;45.630;8.886;2023-07-08T00:32:53;13.10;;;6.25;;
34405;SDS011;20658;45.630;8.886;2023-07-08T00:35:28;14.43;;;6.82;;
34405;SDS011;20658;45.630;8.886;2023-07-08T00:38:09;15.32;;;6.80;;
34405;SDS011;20658;45.630;8.886;2023-07-08T00:40:50;16.58;;;6.68;;
34405;SDS011;20658;45.630;8.886;2023-07-08T00:43:29;19.20;;;7.57;;
34405;SDS011;20658;45.630;8.886;2023-07-08T00:46:12;17.48;;;8.30;;
34405;SDS011;20658;45.630;8.886;2023-07-08T00:48:55;12.55;;;6.68;;
34405;SDS011;20658;45.630;8.886;2023-07-08T00:51:33;16.10;;;7.38;;
34405;SDS011;20658;45.630;8.886;2023-07-08T00:54:10;21.50;;;7.90;;
34405;SDS011;20658;45.630;8.886;2023-07-08T00:56:46;16.00;;;7.47;;
34405;SDS011;20658;45.630;8.886;2023-07-08T00:59:25;13.23;;;6.70;;
34405;SDS011;20658;45.630;8.886;2023-07-08T01:02:03;17.67;;;6.82;;
34405;SDS011;20658;45.630;8.886;2023-07-08T01:04:42;14.98;;;8.30;;
34405;SDS011;20658;45.630;8.886;2023-07-08T01:07:22;14.18;;;7.00;;
34405;SDS011;20658;45.630;8.886;2023-07-08T01:09:56;13.40;;;7.00;;
34405;SDS011;20658;45.630;8.886;2023-07-08T01:12:37;15.88;;;7.00;;
34405;SDS011;20658;45.630;8.886;2023-07-08T01:15:14;16.30;;;7.25;;
34405;SDS011;20658;45.630;8.886;2023-07-08T01:17:48;18.45;;;7.13;;
34405;SDS011;20658;45.630;8.886;2023-07-08T01:20:27;12.48;;;6.22;;
34405;SDS011;20658;45.630;8.886;2023-07-08T01:23:01;14.15;;;6.82;;
34405;SDS011;20658;45.630;8.886;2023-07-08T01:25:36;13.80;;;6.80;;
34405;SDS011;20658;45.630;8.886;2023-07-08T01:28:09;15.38;;;6.95;;
34405;SDS011;20658;45.630;8.886;2023-07-08T01:30:43;15.30;;;7.13;;
34405;SDS011;20658;45.630;8.886;2023-07-08T01:33:18;18.48;;;7.60;;
34405;SDS011;20658;45.630;8.886;2023-07-08T01:35:56;16.08;;;7.25;;
34405;SDS011;20658;45.630;8.886;2023-07-08T01:38:30;16.38;;;6.93;;
34405;SDS011;20658;45.630;8.886;2023-07-08T01:41:05;13.70;;;6.82;;
34405;SDS011;20658;45.630;8.886;2023-07-08T01:43:44;13.60;;;5.93;;
34405;SDS011;20658;45.630;8.886;2023-07-08T01:46:15;16.20;;;6.47;;
34405;SDS011;20658;45.630;8.886;2023-07-08T01:48:55;17.38;;;6.22;;
34405;SDS011;20658;45.630;8.886;2023-07-08T01:51:30;12.93;;;6.40;;
34405;SDS011;20658;45.630;8.886;2023-07-08T01:54:05;13.30;;;6.13;;
34405;SDS011;20658;45.630;8.886;2023-07-08T01:56:38;16.15;;;6.20;;
34405;SDS011;20658;45.630;8.886;2023-07-08T01:59:12;14.93;;;6.40;;
34405;SDS011;20658;45.630;8.886;2023-07-08T02:01:45;15.27;;;6.93;;
34405;SDS011;20658;45.630;8.886;2023-07-08T02:04:19;11.82;;;6.30;;
34405;SDS011;20658;45.630;8.886;2023-07-08T02:06:52;18.73;;;6.35;;
34405;SDS011;20658;45.630;8.886;2023-07-08T02:09:23;14.68;;;6.65;;
34405;SDS011;20658;45.630;8.886;2023-07-08T02:11:57;12.52;;;5.70;;
34405;SDS011;20658;45.630;8.886;2023-07-08T02:14:30;13.30;;;6.10;;
34405;SDS011;20658;45.630;8.886;2023-07-08T02:16:59;15.98;;;5.95;;
34405;SDS011;20658;45.630;8.886;2023-07-08T02:19:32;15.80;;;6.07;;
34405;SDS011;20658;45.630;8.886;2023-07-08T02:22:05;16.27;;;7.00;;
34405;SDS011;20658;45.630;8.886;2023-07-08T02:24:40;19.05;;;7.80;;
34405;SDS011;20658;45.630;8.886;2023-07-08T02:27:14;19.30;;;7.90;;
34405;SDS011;20658;45.630;8.886;2023-07-08T02:29:47;12.63;;;6.53;;
34405;SDS011;20658;45.630;8.886;2023-07-08T02:32:21;13.77;;;6.38;;
34405;SDS011;20658;45.630;8.886;2023-07-08T02:34:54;17.35;;;6.80;;
34405;SDS011;20658;45.630;8.886;2023-07-08T02:37:22;11.05;;;5.97;;
34405;SDS011;20658;45.630;8.886;2023-07-08T02:39:57;11.68;;;6.13;;
34405;SDS011;20658;45.630;8.886;2023-07-08T02:42:30;13.57;;;6.28;;
34405;SDS011;20658;45.630;8.886;2023-07-08T02:44:58;11.57;;;5.88;;
34405;SDS011;20658;45.630;8.886;2023-07-08T02:47:32;14.63;;;6.47;;
34405;SDS011;20658;45.630;8.886;2023-07-08T02:50:00;11.88;;;6.80;;
34405;SDS011;20658;45.630;8.886;2023-07-08T02:52:33;10.98;;;5.80;;
34405;SDS011;20658;45.630;8.886;2023-07-08T02:55:08;15.63;;;6.90;;
34405;SDS011;20658;45.630;8.886;2023-07-08T02:57:42;11.52;;;6.05;;
34405;SDS011;20658;45.630;8.886;2023-07-08T03:00:15;14.02;;;6.90;;
34405;SDS011;20658;45.630;8.886;2023-07-08T03:02:48;15.40;;;7.72;;
34405;SDS011;20658;45.630;8.886;2023-07-08T03:05:22;14.05;;;8.07;;
34405;SDS011;20658;45.630;8.886;2023-07-08T03:07:55;18.00;;;7.97;;
34405;SDS011;20658;45.630;8.886;2023-07-08T03:10:30;12.85;;;6.13;;
34405;SDS011;20658;45.630;8.886;2023-07-08T03:13:03;15.27;;;7.25;;
34405;SDS011;20658;45.630;8.886;2023-07-08T03:15:36;15.15;;;8.23;;
34405;SDS011;20658;45.630;8.886;2023-07-08T03:18:05;19.83;;;8.27;;
34405;SDS011;20658;45.630;8.886;2023-07-08T03:20:39;16.95;;;7.88;;
34405;SDS011;20658;45.630;8.886;2023-07-08T03:23:16;16.20;;;7.18;;
34405;SDS011;20658;45.630;8.886;2023-07-08T03:25:52;14.85;;;7.72;;
34405;SDS011;20658;45.630;8.886;2023-07-08T03:28:27;13.32;;;7.88;;
34405;SDS011;20658;45.630;8.886;2023-07-08T03:31:00;13.30;;;7.18;;
34405;SDS011;20658;45.630;8.886;2023-07-08T03:33:34;17.10;;;8.35;;
34405;SDS011;20658;45.630;8.886;2023-07-08T03:36:09;15.13;;;8.48;;
34405;SDS011;20658;45.630;8.886;2023-07-08T03:38:55;20.40;;;8.45;;
34405;SDS011;20658;45.630;8.886;2023-07-08T03:41:32;13.48;;;7.72;;
34405;SDS011;20658;45.630;8.886;2023-07-08T03:44:05;13.60;;;6.93;;
34405;SDS011;20658;45.630;8.886;2023-07-08T03:46:33;16.20;;;8.43;;
34405;SDS011;20658;45.630;8.886;2023-07-08T03:49:07;15.70;;;7.85;;
34405;SDS011;20658;45.630;8.886;2023-07-08T03:51:42;12.80;;;7.45;;
34405;SDS011;20658;45.630;8.886;2023-07-08T03:54:16;16.63;;;7.60;;
34405;SDS011;20658;45.630;8.886;2023-07-08T03:56:48;14.32;;;8.07;;
34405;SDS011;20658;45.630;8.886;2023-07-08T03:59:23;16.45;;;7.60;;
34405;SDS011;20658;45.630;8.886;2023-07-08T04:01:57;16.90;;;8.55;;
34405;SDS011;20658;45.630;8.886;2023-07-08T04:04:31;15.65;;;7.65;;
34405;SDS011;20658;45.630;8.886;2023-07-08T04:07:05;15.85;;;7.18;;
34405;SDS011;20658;45.630;8.886;2023-07-08T04:09:38;16.38;;;8.25;;
34405;SDS011;20658;45.630;8.886;2023-07-08T04:12:16;15.88;;;7.55;;
34405;SDS011;20658;45.630;8.886;2023-07-08T04:14:50;13.18;;;7.68;;
34405;SDS011;20658;45.630;8.886;2023-07-08T04:17:23;16.58;;;7.80;;
34405;SDS011;20658;45.630;8.886;2023-07-08T04:19:57;17.55;;;9.02;;
34405;SDS011;20658;45.630;8.886;2023-07-08T04:22:35;12.13;;;6.88;;
34405;SDS011;20658;45.630;8.886;2023-07-08T04:25:08;14.30;;;7.15;;
34405;SDS011;20658;45.630;8.886;2023-07-08T04:27:44;15.23;;;7.82;;
34405;SDS011;20658;45.630;8.886;2023-07-08T04:30:20;16.48;;;7.45;;
34405;SDS011;20658;45.630;8.886;2023-07-08T04:32:56;16.67;;;8.02;;
34405;SDS011;20658;45.630;8.886;2023-07-08T04:35:29;14.50;;;7.15;;
34405;SDS011;20658;45.630;8.886;2023-07-08T04:38:02;14.35;;;7.65;;
34405;SDS011;20658;45.630;8.886;2023-07-08T04:40:40;16.52;;;7.85;;
34405;SDS011;20658;45.630;8.886;2023-07-08T04:43:15;13.63;;;6.57;;
34405;SDS011;20658;45.630;8.886;2023-07-08T04:45:48;17.42;;;7.55;;
34405;SDS011;20658;45.630;8.886;2023-07-08T04:48:24;18.13;;;8.40;;
34405;SDS011;20658;45.630;8.886;2023-07-08T04:50:57;13.68;;;7.07;;
34405;SDS011;20658;45.630;8.886;2023-07-08T04:53:30;17.02;;;8.60;;
34405;SDS011;20658;45.630;8.886;2023-07-08T04:55:58;19.15;;;8.63;;
34405;SDS011;20658;45.630;8.886;2023-07-08T04:58:33;15.95;;;7.97;;
34405;SDS011;20658;45.630;8.886;2023-07-08T05:01:07;14.23;;;7.53;;
34405;SDS011;20658;45.630;8.886;2023-07-08T05:03:40;17.15;;;7.97;;
34405;SDS011;20658;45.630;8.886;2023-07-08T05:06:13;13.93;;;7.97;;
34405;SDS011;20658;45.630;8.886;2023-07-08T05:08:41;20.40;;;8.07;;
34405;SDS011;20658;45.630;8.886;2023-07-08T05:11:15;14.32;;;7.60;;
34405;SDS011;20658;45.630;8.886;2023-07-08T05:13:49;17.80;;;9.65;;
34405;SDS011;20658;45.630;8.886;2023-07-08T05:16:23;19.00;;;9.80;;
34405;SDS011;20658;45.630;8.886;2023-07-08T05:18:57;20.00;;;11.88;;
34405;SDS011;20658;45.630;8.886;2023-07-08T05:21:25;17.60;;;10.60;;
34405;SDS011;20658;45.630;8.886;2023-07-08T05:24:05;20.50;;;12.55;;
34405;SDS011;20658;45.630;8.886;2023-07-08T05:26:39;22.90;;;14.32;;
34405;SDS011;20658;45.630;8.886;2023-07-08T05:29:14;22.00;;;14.18;;
34405;SDS011;20658;45.630;8.886;2023-07-08T05:31:42;19.42;;;12.77;;
34405;SDS011;20658;45.630;8.886;2023-07-08T05:34:15;21.23;;;13.85;;
34405;SDS011;20658;45.630;8.886;2023-07-08T05:36:48;21.52;;;12.50;;
34405;SDS011;20658;45.630;8.886;2023-07-08T05:39:22;20.95;;;11.88;;
34405;SDS011;20658;45.630;8.886;2023-07-08T05:41:55;22.23;;;13.02;;
34405;SDS011;20658;45.630;8.886;2023-07-08T05:44:25;19.33;;;12.38;;
34405;SDS011;20658;45.630;8.886;2023-07-08T05:46:58;21.63;;;12.20;;
34405;SDS011;20658;45.630;8.886;2023-07-08T05:49:32;19.10;;;11.20;;
34405;SDS011;20658;45.630;8.886;2023-07-08T05:52:06;22.40;;;10.90;;
34405;SDS011;20658;45.630;8.886;2023-07-08T05:54:42;17.58;;;10.10;;
34405;SDS011;20658;45.630;8.886;2023-07-08T05:57:15;16.30;;;9.15;;
34405;SDS011;20658;45.630;8.886;2023-07-08T05:59:50;16.73;;;9.05;;
34405;SDS011;20658;45.630;8.886;2023-07-08T06:02:24;20.13;;;9.45;;
34405;SDS011;20658;45.630;8.886;2023-07-08T06:04:58;16.05;;;8.32;;
34405;SDS011;20658;45.630;8.886;2023-07-08T06:07:31;16.05;;;9.20;;
34405;SDS011;20658;45.630;8.886;2023-07-08T06:10:04;17.05;;;9.20;;
34405;SDS011;20658;45.630;8.886;2023-07-08T06:12:39;18.27;;;7.72;;
34405;SDS011;20658;45.630;8.886;2023-07-08T06:15:15;15.13;;;7.13;;
34405;SDS011;20658;45.630;8.886;2023-07-08T06:17:48;16.20;;;8.20;;
34405;SDS011;20658;45.630;8.886;2023-07-08T06:20:22;15.25;;;7.32;;
34405;SDS011;20658;45.630;8.886;2023-07-08T06:22:55;14.02;;;6.60;;
34405;SDS011;20658;45.630;8.886;2023-07-08T06:25:29;12.02;;;6.10;;
34405;SDS011;20658;45.630;8.886;2023-07-08T06:28:02;13.93;;;6.53;;
34405;SDS011;20658;45.630;8.886;2023-07-08T06:30:37;13.30;;;5.85;;
34405;SDS011;20658;45.630;8.886;2023-07-08T06:33:10;14.88;;;6.50;;
34405;SDS011;20658;45.630;8.886;2023-07-08T06:35:44;15.00;;;6.32;;
34405;SDS011;20658;45.630;8.886;2023-07-08T06:38:17;15.68;;;5.72;;
34405;SDS011;20658;45.630;8.886;2023-07-08T06:40:45;12.10;;;5.47;;
34405;SDS011;20658;45.630;8.886;2023-07-08T06:43:14;10.93;;;5.60;;
34405;SDS011;20658;45.630;8.886;2023-07-08T06:46:10;13.60;;;5.55;;
34405;SDS011;20658;45.630;8.886;2023-07-08T06:48:38;12.73;;;5.82;;
34405;SDS011;20658;45.630;8.886;2023-07-08T06:51:07;14.75;;;6.15;;
34405;SDS011;20658;45.630;8.886;2023-07-08T06:53:40;11.40;;;5.50;;
34405;SDS011;20658;45.630;8.886;2023-07-08T06:56:13;11.57;;;5.90;;
34405;SDS011;20658;45.630;8.886;2023-07-08T06:58:42;13.10;;;5.53;;
34405;SDS011;20658;45.630;8.886;2023-07-08T07:01:12;8.88;;;4.57;;
34405;SDS011;20658;45.630;8.886;2023-07-08T07:03:40;12.98;;;5.40;;
34405;SDS011;20658;45.630;8.886;2023-07-08T07:06:16;12.07;;;4.85;;
34405;SDS011;20658;45.630;8.886;2023-07-08T07:08:44;9.93;;;4.90;;
34405;SDS011;20658;45.630;8.886;2023-07-08T07:11:17;12.82;;;5.53;;
34405;SDS011;20658;45.630;8.886;2023-07-08T07:13:50;11.52;;;4.65;;
34405;SDS011;20658;45.630;8.886;2023-07-08T07:16:25;10.95;;;5.35;;
34405;SDS011;20658;45.630;8.886;2023-07-08T07:18:53;9.13;;;4.82;;
34405;SDS011;20658;45.630;8.886;2023-07-08T07:21:21;8.73;;;5.07;;
34405;SDS011;20658;45.630;8.886;2023-07-08T07:23:55;11.70;;;5.30;;
34405;SDS011;20658;45.630;8.886;2023-07-08T07:26:23;10.15;;;5.05;;
34405;SDS011;20658;45.630;8.886;2023-07-08T07:28:56;11.73;;;5.20;;
34405;SDS011;20658;45.630;8.886;2023-07-08T07:31:31;11.45;;;5.03;;
34405;SDS011;20658;45.630;8.886;2023-07-08T07:34:04;8.73;;;4.57;;
34405;SDS011;20658;45.630;8.886;2023-07-08T07:36:33;13.38;;;5.25;;
34405;SDS011;20658;45.630;8.886;2023-07-08T07:39:06;11.23;;;5.07;;
34405;SDS011;20658;45.630;8.886;2023-07-08T07:41:40;10.18;;;4.45;;
34405;SDS011;20658;45.630;8.886;2023-07-08T07:44:08;8.60;;;4.93;;
34405;SDS011;20658;45.630;8.886;2023-07-08T07:46:42;17.33;;;5.32;;
34405;SDS011;20658;45.630;8.886;2023-07-08T07:49:16;12.23;;;4.72;;
34405;SDS011;20658;45.630;8.886;2023-07-08T07:51:49;7.97;;;4.20;;
34405;SDS011;20658;45.630;8.886;2023-07-08T07:54:22;11.48;;;4.85;;
34405;SDS011;20658;45.630;8.886;2023-07-08T07:56:55;9.80;;;4.75;;
34405;SDS011;20658;45.630;8.886;2023-07-08T07:59:29;10.88;;;3.97;;
34405;SDS011;20658;45.630;8.886;2023-07-08T08:02:04;10.82;;;4.50;;
34405;SDS011;20658;45.630;8.886;2023-07-08T08:04:37;10.15;;;5.00;;
34405;SDS011;20658;45.630;8.886;2023-07-08T08:07:05;11.75;;;4.72;;
34405;SDS011;20658;45.630;8.886;2023-07-08T08:09:39;7.78;;;3.92;;
34405;SDS011;20658;45.630;8.886;2023-07-08T08:12:12;9.25;;;4.78;;
34405;SDS011;20658;45.630;8.886;2023-07-08T08:14:40;8.43;;;4.68;;
34405;SDS011;20658;45.630;8.886;2023-07-08T08:17:15;9.40;;;4.38;;
34405;SDS011;20658;45.630;8.886;2023-07-08T08:19:44;12.77;;;4.38;;
34405;SDS011;20658;45.630;8.886;2023-07-08T08:22:17;7.93;;;3.90;;
34405;SDS011;20658;45.630;8.886;2023-07-08T08:24:52;9.20;;;3.72;;
34405;SDS011;20658;45.630;8.886;2023-07-08T08:27:26;11.48;;;5.32;;
34405;SDS011;20658;45.630;8.886;2023-07-08T08:29:54;8.55;;;4.70;;
34405;SDS011;20658;45.630;8.886;2023-07-08T08:32:28;10.75;;;4.80;;
34405;SDS011;20658;45.630;8.886;2023-07-08T08:34:57;12.60;;;5.05;;
34405;SDS011;20658;45.630;8.886;2023-07-08T08:37:30;10.48;;;4.78;;
34405;SDS011;20658;45.630;8.886;2023-07-08T08:40:04;7.38;;;4.30;;
34405;SDS011;20658;45.630;8.886;2023-07-08T08:42:41;14.15;;;4.70;;
34405;SDS011;20658;45.630;8.886;2023-07-08T08:45:17;9.70;;;4.15;;
34405;SDS011;20658;45.630;8.886;2023-07-08T08:47:54;10.98;;;4.88;;
34405;SDS011;20658;45.630;8.886;2023-07-08T08:50:29;7.13;;;4.20;;
34405;SDS011;20658;45.630;8.886;2023-07-08T08:53:08;12.90;;;4.68;;
34405;SDS011;20658;45.630;8.886;2023-07-08T08:55:40;9.98;;;4.28;;
34405;SDS011;20658;45.630;8.886;2023-07-08T08:58:13;8.75;;;4.53;;
34405;SDS011;20658;45.630;8.886;2023-07-08T09:00:56;9.45;;;4.60;;
34405;SDS011;20658;45.630;8.886;2023-07-08T09:03:36;9.75;;;5.10;;
34405;SDS011;20658;45.630;8.886;2023-07-08T09:06:11;8.68;;;4.57;;
34405;SDS011;20658;45.630;8.886;2023-07-08T09:08:42;13.18;;;5.00;;
34405;SDS011;20658;45.630;8.886;2023-07-08T09:11:22;9.13;;;5.03;;
34405;SDS011;20658;45.630;8.886;2023-07-08T09:14:04;10.45;;;4.57;;
34405;SDS011;20658;45.630;8.886;2023-07-08T09:16:46;11.77;;;4.50;;
34405;SDS011;20658;45.630;8.886;2023-07-08T09:19:29;10.80;;;4.90;;
34405;SDS011;20658;45.630;8.886;2023-07-08T09:22:06;7.22;;;4.32;;
34405;SDS011;20658;45.630;8.886;2023-07-08T09:24:48;10.52;;;4.60;;
34405;SDS011;20658;45.630;8.886;2023-07-08T09:27:20;12.57;;;5.22;;
34405;SDS011;20658;45.630;8.886;2023-07-08T09:29:54;9.65;;;5.00;;
34405;SDS011;20658;45.630;8.886;2023-07-08T09:32:24;9.55;;;4.28;;
34405;SDS011;20658;45.630;8.886;2023-07-08T09:37:31;11.10;;;5.22;;
34405;SDS011;20658;45.630;8.886;2023-07-08T09:40:04;9.18;;;4.93;;
34405;SDS011;20658;45.630;8.886;2023-07-08T09:42:44;10.40;;;4.93;;
34405;SDS011;20658;45.630;8.886;2023-07-08T09:45:23;11.98;;;4.75;;
34405;SDS011;20658;45.630;8.886;2023-07-08T09:47:52;10.45;;;5.20;;
34405;SDS011;20658;45.630;8.886;2023-07-08T09:50:25;10.43;;;4.70;;
34405;SDS011;20658;45.630;8.886;2023-07-08T09:53:03;11.50;;;5.00;;
34405;SDS011;20658;45.630;8.886;2023-07-08T09:55:34;10.27;;;4.72;;
34405;SDS011;20658;45.630;8.886;2023-07-08T09:58:08;7.55;;;4.22;;
34405;SDS011;20658;45.630;8.886;2023-07-08T10:00:43;8.13;;;4.25;;
34405;SDS011;20658;45.630;8.886;2023-07-08T10:03:22;10.18;;;4.07;;
34405;SDS011;20658;45.630;8.886;2023-07-08T10:05:56;8.95;;;4.80;;
34405;SDS011;20658;45.630;8.886;2023-07-08T10:08:28;9.88;;;5.18;;
34405;SDS011;20658;45.630;8.886;2023-07-08T10:11:10;8.73;;;5.45;;
34405;SDS011;20658;45.630;8.886;2023-07-08T10:13:48;12.38;;;4.80;;
34405;SDS011;20658;45.630;8.886;2023-07-08T10:16:25;10.77;;;4.82;;
34405;SDS011;20658;45.630;8.886;2023-07-08T10:19:04;7.32;;;4.22;;
34405;SDS011;20658;45.630;8.886;2023-07-08T10:21:43;6.97;;;3.90;;
34405;SDS011;20658;45.630;8.886;2023-07-08T10:24:26;8.38;;;4.07;;
34405;SDS011;20658;45.630;8.886;2023-07-08T10:27:12;9.05;;;4.10;;
34405;SDS011;20658;45.630;8.886;2023-07-08T10:29:56;9.10;;;4.43;;
34405;SDS011;20658;45.630;8.886;2023-07-08T10:32:41;9.95;;;4.38;;
34405;SDS011;20658;45.630;8.886;2023-07-08T10:35:34;8.00;;;4.45;;
34405;SDS011;20658;45.630;8.886;2023-07-08T10:38:17;7.10;;;3.97;;
34405;SDS011;20658;45.630;8.886;2023-07-08T10:40:58;8.15;;;3.97;;
34405;SDS011;20658;45.630;8.886;2023-07-08T10:43:42;10.27;;;3.88;;
34405;SDS011;20658;45.630;8.886;2023-07-08T10:46:33;6.10;;;3.43;;
34405;SDS011;20658;45.630;8.886;2023-07-08T10:49:22;7.22;;;3.88;;
34405;SDS011;20658;45.630;8.886;2023-07-08T10:52:06;8.02;;;4.15;;
34405;SDS011;20658;45.630;8.886;2023-07-08T10:55:01;6.88;;;3.58;;
34405;SDS011;20658;45.630;8.886;2023-07-08T10:57:49;10.45;;;4.28;;
34405;SDS011;20658;45.630;8.886;2023-07-08T11:01:09;8.23;;;4.43;;
34405;SDS011;20658;45.630;8.886;2023-07-08T11:04:02;11.63;;;4.13;;
34405;SDS011;20658;45.630;8.886;2023-07-08T11:06:51;8.07;;;4.13;;
34405;SDS011;20658;45.630;8.886;2023-07-08T11:09:29;7.60;;;3.95;;
34405;SDS011;20658;45.630;8.886;2023-07-08T11:12:08;10.63;;;4.40;;
34405;SDS011;20658;45.630;8.886;2023-07-08T11:14:56;11.05;;;5.00;;
34405;SDS011;20658;45.630;8.886;2023-07-08T11:17:36;10.23;;;4.13;;
34405;SDS011;20658;45.630;8.886;2023-07-08T11:20:13;10.20;;;3.95;;
34405;SDS011;20658;45.630;8.886;2023-07-08T11:22:49;12.10;;;5.07;;
34405;SDS011;20658;45.630;8.886;2023-07-08T11:25:27;12.70;;;4.28;;
34405;SDS011;20658;45.630;8.886;2023-07-08T11:28:03;13.18;;;5.53;;
34405;SDS011;20658;45.630;8.886;2023-07-08T11:30:34;5.75;;;3.50;;
34405;SDS011;20658;45.630;8.886;2023-07-08T11:33:09;9.38;;;4.68;;
34405;SDS011;20658;45.630;8.886;2023-07-08T11:35:40;8.85;;;3.97;;
34405;SDS011;20658;45.630;8.886;2023-07-08T11:38:16;7.25;;;4.00;;
34405;SDS011;20658;45.630;8.886;2023-07-08T11:40:51;10.85;;;4.20;;
34405;SDS011;20658;45.630;8.886;2023-07-08T11:43:24;7.63;;;3.63;;
34405;SDS011;20658;45.630;8.886;2023-07-08T11:45:56;9.52;;;4.55;;
34405;SDS011;20658;45.630;8.886;2023-07-08T11:48:30;9.75;;;4.43;;
34405;SDS011;20658;45.630;8.886;2023-07-08T11:51:05;8.57;;;3.83;;
34405;SDS011;20658;45.630;8.886;2023-07-08T11:53:46;9.20;;;3.90;;
34405;SDS011;20658;45.630;8.886;2023-07-08T11:56:21;8.43;;;3.75;;
34405;SDS011;20658;45.630;8.886;2023-07-08T11:59:17;9.05;;;4.22;;
34405;SDS011;20658;45.630;8.886;2023-07-08T12:01:47;6.68;;;3.67;;
34405;SDS011;20658;45.630;8.886;2023-07-08T12:04:28;10.02;;;4.55;;
34405;SDS011;20658;45.630;8.886;2023-07-08T12:07:15;7.80;;;4.13;;
34405;SDS011;20658;45.630;8.886;2023-07-08T12:09:57;9.52;;;4.20;;
34405;SDS011;20658;45.630;8.886;2023-07-08T12:12:31;8.85;;;4.30;;
34405;SDS011;20658;45.630;8.886;2023-07-08T12:15:11;9.60;;;3.88;;
34405;SDS011;20658;45.630;8.886;2023-07-08T12:17:42;7.30;;;3.35;;
34405;SDS011;20658;45.630;8.886;2023-07-08T12:20:15;7.22;;;3.92;;
34405;SDS011;20658;45.630;8.886;2023-07-08T12:22:53;6.68;;;3.83;;
34405;SDS011;20658;45.630;8.886;2023-07-08T12:25:35;7.60;;;3.70;;
34405;SDS011;20658;45.630;8.886;2023-07-08T12:28:09;7.13;;;4.10;;
34405;SDS011;20658;45.630;8.886;2023-07-08T12:30:46;9.45;;;4.72;;
34405;SDS011;20658;45.630;8.886;2023-07-08T12:33:21;11.63;;;3.90;;
34405;SDS011;20658;45.630;8.886;2023-07-08T12:36:00;10.15;;;4.18;;
34405;SDS011;20658;45.630;8.886;2023-07-08T12:38:32;6.88;;;3.97;;
34405;SDS011;20658;45.630;8.886;2023-07-08T12:41:08;7.93;;;4.32;;
34405;SDS011;20658;45.630;8.886;2023-07-08T12:43:39;7.38;;;4.00;;
34405;SDS011;20658;45.630;8.886;2023-07-08T12:46:15;10.90;;;4.30;;
34405;SDS011;20658;45.630;8.886;2023-07-08T12:48:50;11.35;;;3.88;;
34405;SDS011;20658;45.630;8.886;2023-07-08T12:51:26;8.27;;;3.65;;
34405;SDS011;20658;45.630;8.886;2023-07-08T12:53:59;9.15;;;4.35;;
34405;SDS011;20658;45.630;8.886;2023-07-08T12:56:33;6.93;;;3.70;;
34405;SDS011;20658;45.630;8.886;2023-07-08T12:59:11;7.45;;;3.83;;
34405;SDS011;20658;45.630;8.886;2023-07-08T13:01:43;7.38;;;4.25;;
34405;SDS011;20658;45.630;8.886;2023-07-08T13:04:19;10.00;;;4.38;;
34405;SDS011;20658;45.630;8.886;2023-07-08T13:06:52;8.52;;;3.90;;
34405;SDS011;20658;45.630;8.886;2023-07-08T13:09:30;10.77;;;3.80;;
34405;SDS011;20658;45.630;8.886;2023-07-08T13:12:12;11.45;;;4.45;;
34405;SDS011;20658;45.630;8.886;2023-07-08T13:14:49;12.38;;;4.78;;
34405;SDS011;20658;45.630;8.886;2023-07-08T13:17:26;9.60;;;4.32;;
34405;SDS011;20658;45.630;8.886;2023-07-08T13:19:59;12.60;;;4.63;;
34405;SDS011;20658;45.630;8.886;2023-07-08T13:22:33;8.05;;;3.58;;
34405;SDS011;20658;45.630;8.886;2023-07-08T13:25:12;7.55;;;4.18;;
34405;SDS011;20658;45.630;8.886;2023-07-08T13:27:53;7.93;;;4.32;;
34405;SDS011;20658;45.630;8.886;2023-07-08T13:30:24;7.65;;;4.45;;
34405;SDS011;20658;45.630;8.886;2023-07-08T13:33:02;8.40;;;4.45;;
34405;SDS011;20658;45.630;8.886;2023-07-08T13:35:34;10.55;;;5.00;;
34405;SDS011;20658;45.630;8.886;2023-07-08T13:38:12;8.25;;;3.90;;
34405;SDS011;20658;45.630;8.886;2023-07-08T13:40:48;8.93;;;4.25;;
34405;SDS011;20658;45.630;8.886;2023-07-08T13:43:26;7.85;;;4.13;;
34405;SDS011;20658;45.630;8.886;2023-07-08T13:46:02;7.45;;;4.10;;
34405;SDS011;20658;45.630;8.886;2023-07-08T13:48:38;8.57;;;4.00;;
34405;SDS011;20658;45.630;8.886;2023-07-08T13:51:14;8.35;;;4.28;;
34405;SDS011;20658;45.630;8.886;2023-07-08T13:53:51;8.95;;;4.03;;
34405;SDS011;20658;45.630;8.886;2023-07-08T13:56:28;7.45;;;3.38;;
34405;SDS011;20658;45.630;8.886;2023-07-08T14:01:43;9.30;;;4.00;;
34405;SDS011;20658;45.630;8.886;2023-07-08T14:04:18;7.70;;;4.07;;
34405;SDS011;20658;45.630;8.886;2023-07-08T14:06:54;10.05;;;3.95;;
34405;SDS011;20658;45.630;8.886;2023-07-08T14:09:23;6.80;;;4.15;;
34405;SDS011;20658;45.630;8.886;2023-07-08T14:11:56;7.82;;;3.58;;
34405;SDS011;20658;45.630;8.886;2023-07-08T14:14:30;8.45;;;4.05;;
34405;SDS011;20658;45.630;8.886;2023-07-08T14:16:58;6.22;;;3.65;;
34405;SDS011;20658;45.630;8.886;2023-07-08T14:19:33;8.93;;;4.20;;
34405;SDS011;20658;45.630;8.886;2023-07-08T14:22:22;6.05;;;3.83;;
34405;SDS011;20658;45.630;8.886;2023-07-08T14:25:03;7.50;;;4.13;;
34405;SDS011;20658;45.630;8.886;2023-07-08T14:27:40;7.38;;;3.88;;
34405;SDS011;20658;45.630;8.886;2023-07-08T14:30:14;9.07;;;4.70;;
34405;SDS011;20658;45.630;8.886;2023-07-08T14:32:47;9.18;;;4.18;;
34405;SDS011;20658;45.630;8.886;2023-07-08T14:35:22;7.38;;;3.78;;
34405;SDS011;20658;45.630;8.886;2023-07-08T14:37:52;7.85;;;4.03;;
34405;SDS011;20658;45.630;8.886;2023-07-08T14:40:34;8.73;;;4.03;;
34405;SDS011;20658;45.630;8.886;2023-07-08T14:43:04;6.68;;;3.92;;
34405;SDS011;20658;45.630;8.886;2023-07-08T14:45:46;8.23;;;3.95;;
34405;SDS011;20658;45.630;8.886;2023-07-08T14:48:22;6.45;;;3.83;;
34405;SDS011;20658;45.630;8.886;2023-07-08T14:50:58;7.30;;;3.92;;
34405;SDS011;20658;45.630;8.886;2023-07-08T14:53:31;8.75;;;4.30;;
34405;SDS011;20658;45.630;8.886;2023-07-08T14:56:15;6.38;;;4.18;;
34405;SDS011;20658;45.630;8.886;2023-07-08T14:58:49;11.52;;;4.40;;
34405;SDS011;20658;45.630;8.886;2023-07-08T15:01:19;10.75;;;3.90;;
34405;SDS011;20658;45.630;8.886;2023-07-08T15:03:55;7.15;;;4.20;;
34405;SDS011;20658;45.630;8.886;2023-07-08T15:06:30;8.93;;;4.05;;
34405;SDS011;20658;45.630;8.886;2023-07-08T15:09:03;7.97;;;3.90;;
34405;SDS011;20658;45.630;8.886;2023-07-08T15:11:38;15.02;;;4.85;;
34405;SDS011;20658;45.630;8.886;2023-07-08T15:14:15;13.40;;;4.88;;
34405;SDS011;20658;45.630;8.886;2023-07-08T15:16:49;10.73;;;4.45;;
34405;SDS011;20658;45.630;8.886;2023-07-08T15:19:23;5.85;;;3.55;;
34405;SDS011;20658;45.630;8.886;2023-07-08T15:21:58;11.27;;;4.90;;
34405;SDS011;20658;45.630;8.886;2023-07-08T15:24:32;8.85;;;4.10;;
34405;SDS011;20658;45.630;8.886;2023-07-08T15:27:05;6.47;;;3.90;;
34405;SDS011;20658;45.630;8.886;2023-07-08T15:29:41;8.98;;;4.55;;
34405;SDS011;20658;45.630;8.886;2023-07-08T15:32:15;8.48;;;4.10;;